Hauptseite
METAR-TAF:

METAR-TAF

Flughäfen :

Flughafen Chania

Chania, Kreta, Griechenland

Breite: 35-29N, Länge: 024-07E, Höhe: 146 m

Beobachtung

Neuester Wetterbericht von vor 35 Minuten, um 15:50 UTC
Wind 6 kt aus Ost
Temperatur 14°C
Luftfeuchtigkeit 88%
Luftdruck 1017 hPa
Sichtweite 10 km oder mehr
keine Wolken unter 1500 m und keine Kumulonimbus oder Gewitterwolken

METAR: LGSA 251550Z 09006KT CAVOK 14/12 Q1017

Zeit: 18:25 (16:25 UTC)

Prognose

Neuester Wetterbericht von vor 5 Stunden und 25 Minuten, um 11:00 UTC
Gültige Prognose vom 25 um 12 UTC bis 26 um 12 UTC
Wind 10 kt aus Ost/Nordost
Sichtweite 10 km oder mehr
Leicht bewölkt in der Höhe von 2500 ft
Übergehend zu
vom 25 um 20 UTC bis 25 um 22 UTC
Wind 12 kt aus Südwest

TAF: LGSA 251100Z 2512/2612 06010KT 9999 FEW025 BECMG 2520/2522 22012KT

Wetterbeobachtungen und Prognosen von mehr als 4000 Flughäfen (METAR und TAF Bericht).

Die verfügbaren Stationen werden durch gelbe und rote Markierungen auf der Karte dargestellt.

Führen Sie die Maus auf sie, um den Namen der Station zu sehen.

Darauf klicken, um die Beobachtung von Wetterbeobachtungen und Prognosen zu sehen.

Um die Karte zu ändern : klicken Sie auf den grünen Tasten mit einem schwarzen Kreuz Zum Vergrößern, auf den grünen Button mit einem Gedankenstrich zu verkleinern, oder auf die grünen Pfeile für benachbarte Karten.


METAR-TAF: